createdAt,value
2022-12-18T00:01:20.323Z,3.67
2022-12-18T00:03:47.271Z,2.70
2022-12-18T00:06:14.689Z,3.00
2022-12-18T00:08:45.180Z,3.37
2022-12-18T00:11:15.184Z,3.33
2022-12-18T00:13:42.210Z,4.33
2022-12-18T00:16:11.291Z,3.97
2022-12-18T00:18:38.393Z,3.93
2022-12-18T00:21:07.440Z,3.70
2022-12-18T00:23:34.566Z,4.77
2022-12-18T00:26:05.879Z,3.30
2022-12-18T00:28:32.495Z,3.57
2022-12-18T00:31:06.869Z,4.10
2022-12-18T00:33:33.798Z,3.00
2022-12-18T00:36:11.127Z,3.93
2022-12-18T00:38:38.037Z,2.80
2022-12-18T00:41:05.153Z,2.83
2022-12-18T00:43:34.339Z,3.43
2022-12-18T00:46:00.986Z,3.40
2022-12-18T00:48:27.667Z,3.33
2022-12-18T00:50:54.251Z,2.50
2022-12-18T00:53:20.862Z,2.40
2022-12-18T00:55:47.709Z,2.03
2022-12-18T00:58:15.439Z,2.07
2022-12-18T01:00:42.240Z,2.23
2022-12-18T01:03:09.000Z,2.43
2022-12-18T01:05:39.220Z,1.63
2022-12-18T01:08:05.816Z,2.73
2022-12-18T01:10:32.403Z,2.10
2022-12-18T01:12:59.012Z,2.23
2022-12-18T01:15:25.639Z,3.77
2022-12-18T01:17:53.691Z,2.90
2022-12-18T01:20:20.525Z,3.27
2022-12-18T01:22:47.577Z,3.50
2022-12-18T01:25:14.167Z,3.87
2022-12-18T01:27:40.842Z,3.03
2022-12-18T01:30:08.341Z,5.07
2022-12-18T01:32:35.097Z,3.33
2022-12-18T01:35:02.109Z,3.07
2022-12-18T01:37:28.716Z,2.80
2022-12-18T01:39:55.592Z,2.10
2022-12-18T01:42:22.409Z,2.27
2022-12-18T01:45:13.392Z,1.70
2022-12-18T01:47:48.197Z,2.03
2022-12-18T01:50:17.325Z,2.30
2022-12-18T01:52:44.716Z,1.60
2022-12-18T01:55:11.910Z,1.57
2022-12-18T01:57:39.075Z,1.73
2022-12-18T02:00:20.128Z,1.83
2022-12-18T02:02:47.470Z,1.93
2022-12-18T02:05:36.034Z,1.77
2022-12-18T02:08:13.123Z,1.57
2022-12-18T02:11:17.001Z,1.30
2022-12-18T02:14:11.099Z,1.07
2022-12-18T02:16:44.231Z,1.20
2022-12-18T02:19:40.088Z,1.13
2022-12-18T02:22:15.627Z,1.30
2022-12-18T02:25:02.241Z,1.20
2022-12-18T02:27:30.459Z,1.10
2022-12-18T02:29:58.881Z,1.37
2022-12-18T02:32:27.976Z,1.73
2022-12-18T02:34:55.076Z,1.20
2022-12-18T02:37:21.697Z,1.30
2022-12-18T02:39:49.086Z,1.73
2022-12-18T02:42:15.785Z,1.80
2022-12-18T02:44:48.241Z,1.30
2022-12-18T02:47:15.776Z,1.60
2022-12-18T02:50:08.611Z,1.20
2022-12-18T02:53:03.241Z,1.33
2022-12-18T02:55:43.149Z,1.20
2022-12-18T02:58:19.656Z,1.87
2022-12-18T03:01:41.694Z,1.40
2022-12-18T03:04:15.264Z,1.70
2022-12-18T03:06:44.550Z,1.20
2022-12-18T03:09:13.485Z,1.40
2022-12-18T03:12:01.472Z,1.30
2022-12-18T03:14:29.023Z,1.03
2022-12-18T03:16:56.057Z,1.10
2022-12-18T03:19:23.641Z,1.00
2022-12-18T03:21:52.428Z,1.77
2022-12-18T03:24:19.199Z,1.63
2022-12-18T03:26:47.353Z,1.37
2022-12-18T03:29:17.620Z,1.23
2022-12-18T03:31:46.543Z,1.30
2022-12-18T03:34:18.382Z,0.90
2022-12-18T03:36:44.978Z,1.87
2022-12-18T03:39:11.592Z,1.07
2022-12-18T03:41:50.569Z,0.80
2022-12-18T03:44:31.107Z,1.93
2022-12-18T03:47:16.388Z,1.00
2022-12-18T03:50:12.351Z,1.43
2022-12-18T03:52:43.605Z,0.80
2022-12-18T03:55:10.249Z,1.03
2022-12-18T03:57:36.835Z,1.10
2022-12-18T04:00:14.187Z,1.33
2022-12-18T04:02:45.992Z,1.00
2022-12-18T04:05:12.733Z,1.37
2022-12-18T04:07:39.403Z,1.03
2022-12-18T04:10:07.291Z,1.07
2022-12-18T04:12:33.885Z,1.10
2022-12-18T04:15:00.485Z,0.90
2022-12-18T04:17:27.135Z,0.90
2022-12-18T04:19:53.745Z,0.90
2022-12-18T04:22:20.360Z,1.10
2022-12-18T04:24:47.182Z,1.13
2022-12-18T04:27:13.784Z,1.23
2022-12-18T04:29:40.410Z,1.13
2022-12-18T04:32:07.053Z,1.17
2022-12-18T04:34:33.678Z,0.80
2022-12-18T04:37:00.290Z,0.80
2022-12-18T04:39:26.925Z,0.70
2022-12-18T04:41:53.581Z,0.60
2022-12-18T04:44:20.192Z,0.70
2022-12-18T04:46:46.858Z,0.77
2022-12-18T04:49:13.541Z,0.50
2022-12-18T04:51:40.284Z,0.80
2022-12-18T04:54:06.889Z,0.30
2022-12-18T04:56:33.497Z,0.60
2022-12-18T04:59:00.102Z,0.50
2022-12-18T05:01:32.500Z,0.80
2022-12-18T05:04:01.594Z,0.50
2022-12-18T05:06:28.292Z,0.40
2022-12-18T05:08:54.885Z,0.60
2022-12-18T05:11:21.488Z,0.93
2022-12-18T05:13:48.077Z,0.50
2022-12-18T05:16:14.911Z,0.67
2022-12-18T05:18:41.715Z,1.10
2022-12-18T05:21:08.348Z,1.00
2022-12-18T05:23:35.604Z,0.97
2022-12-18T05:26:03.289Z,0.70
2022-12-18T05:28:30.563Z,0.73
2022-12-18T05:30:59.169Z,0.77
2022-12-18T05:33:26.949Z,0.77
2022-12-18T05:35:57.911Z,0.70
2022-12-18T05:38:25.340Z,0.70
2022-12-18T05:40:52.211Z,0.80
2022-12-18T05:43:21.540Z,0.90
2022-12-18T05:45:48.786Z,0.90
2022-12-18T05:48:15.648Z,1.07
2022-12-18T05:50:43.160Z,0.90
2022-12-18T05:53:09.769Z,1.10
2022-12-18T05:55:36.823Z,1.30
2022-12-18T05:58:04.205Z,1.30
2022-12-18T06:00:32.942Z,1.20
2022-12-18T06:03:00.170Z,1.17
2022-12-18T06:05:26.860Z,1.30
2022-12-18T06:07:53.508Z,0.90
2022-12-18T06:10:20.366Z,0.80
2022-12-18T06:12:46.953Z,1.00
2022-12-18T06:15:14.165Z,1.00
2022-12-18T06:17:41.152Z,1.10
2022-12-18T06:20:08.212Z,1.00
2022-12-18T06:22:35.882Z,1.30
2022-12-18T06:25:02.535Z,1.20
2022-12-18T06:27:29.158Z,1.50
2022-12-18T06:29:55.764Z,0.97
2022-12-18T06:32:22.407Z,1.10
2022-12-18T06:34:49.022Z,1.23
2022-12-18T06:37:15.626Z,1.23
2022-12-18T06:39:42.221Z,1.33
2022-12-18T06:42:08.832Z,1.40
2022-12-18T06:44:35.473Z,1.30
2022-12-18T06:47:02.086Z,1.23
2022-12-18T06:49:30.575Z,1.37
2022-12-18T06:51:57.493Z,1.73
2022-12-18T06:54:24.094Z,4.37
2022-12-18T06:56:50.807Z,8.57
2022-12-18T06:59:17.682Z,10.90
2022-12-18T07:01:44.495Z,9.23
2022-12-18T07:04:11.196Z,8.97
2022-12-18T07:06:37.891Z,7.57
2022-12-18T07:09:04.547Z,6.00
2022-12-18T07:11:33.046Z,4.67
2022-12-18T07:13:59.661Z,3.93
2022-12-18T07:16:26.391Z,3.63
2022-12-18T07:18:53.826Z,3.60
2022-12-18T07:21:20.612Z,2.80
2022-12-18T07:23:48.812Z,1.90
2022-12-18T07:26:16.755Z,2.73
2022-12-18T07:28:43.475Z,2.33
2022-12-18T07:31:18.054Z,1.60
2022-12-18T07:33:44.846Z,1.83
2022-12-18T07:36:11.843Z,2.00
2022-12-18T07:38:38.538Z,1.53
2022-12-18T07:41:12.654Z,1.70
2022-12-18T07:43:39.717Z,1.70
2022-12-18T07:46:06.988Z,1.70
2022-12-18T07:48:33.615Z,2.40
2022-12-18T07:51:01.041Z,2.03
2022-12-18T07:53:27.709Z,2.13
2022-12-18T07:56:25.360Z,1.70
2022-12-18T07:58:45.356Z,3.53
2022-12-18T08:01:12.724Z,2.97
2022-12-18T08:03:40.405Z,5.17
2022-12-18T08:06:09.634Z,3.17
2022-12-18T08:08:36.385Z,5.00
2022-12-18T08:11:03.021Z,6.03
2022-12-18T08:13:29.795Z,5.70
2022-12-18T08:15:57.934Z,7.27
2022-12-18T08:18:24.624Z,9.40
2022-12-18T08:20:51.265Z,11.30
2022-12-18T08:23:17.932Z,11.47
2022-12-18T08:25:44.948Z,9.87
2022-12-18T08:28:11.818Z,8.87
2022-12-18T08:30:38.442Z,7.13
2022-12-18T08:33:05.354Z,8.30
2022-12-18T08:35:38.750Z,5.97
2022-12-18T08:38:07.789Z,5.50
2022-12-18T08:40:34.449Z,4.80
2022-12-18T08:43:19.569Z,5.23
2022-12-18T08:45:46.217Z,3.47
2022-12-18T08:48:15.588Z,3.50
2022-12-18T08:50:44.457Z,3.63
2022-12-18T08:53:11.117Z,3.53
2022-12-18T08:55:37.749Z,2.73
2022-12-18T08:58:04.352Z,3.67
2022-12-18T09:00:31.116Z,4.10
2022-12-18T09:02:57.851Z,4.63
2022-12-18T09:05:24.588Z,4.80
2022-12-18T09:07:51.200Z,4.23
2022-12-18T09:10:17.787Z,5.43
2022-12-18T09:12:45.580Z,5.70
2022-12-18T09:15:12.509Z,5.30
2022-12-18T09:17:39.181Z,4.70
2022-12-18T09:20:06.341Z,4.07
2022-12-18T09:22:32.927Z,5.23
2022-12-18T09:24:59.539Z,4.80
2022-12-18T09:27:26.141Z,4.10
2022-12-18T09:29:52.736Z,3.93
2022-12-18T09:32:22.472Z,3.83
2022-12-18T09:34:49.309Z,3.57
2022-12-18T09:37:15.901Z,3.90
2022-12-18T09:39:42.587Z,3.20
2022-12-18T09:42:14.339Z,2.67
2022-12-18T09:44:45.425Z,3.23
2022-12-18T09:47:27.111Z,2.40
2022-12-18T09:50:17.291Z,2.30
2022-12-18T09:52:46.228Z,2.37
2022-12-18T09:55:16.308Z,2.27
2022-12-18T09:57:46.381Z,2.10
2022-12-18T10:00:18.903Z,2.20
2022-12-18T10:02:45.585Z,2.23
2022-12-18T10:05:21.928Z,2.13
2022-12-18T10:08:07.127Z,2.37
2022-12-18T10:10:59.105Z,2.03
2022-12-18T10:13:31.823Z,2.20
2022-12-18T10:16:10.598Z,2.10
2022-12-18T10:19:04.821Z,2.10
2022-12-18T10:21:39.806Z,2.93
2022-12-18T10:24:14.132Z,2.63
2022-12-18T10:26:41.931Z,2.43
2022-12-18T10:29:14.589Z,2.43
2022-12-18T10:31:41.292Z,2.13
2022-12-18T10:34:12.114Z,2.40
2022-12-18T10:36:38.868Z,2.10
2022-12-18T10:39:38.120Z,2.13
2022-12-18T10:42:20.271Z,2.67
2022-12-18T10:44:47.569Z,2.03
2022-12-18T10:47:18.504Z,2.37
2022-12-18T10:49:50.439Z,3.13
2022-12-18T10:52:20.419Z,3.27
2022-12-18T10:55:02.729Z,3.10
2022-12-18T10:57:39.585Z,3.70
2022-12-18T11:00:28.594Z,3.27
2022-12-18T11:02:56.607Z,3.23
2022-12-18T11:05:34.776Z,3.73
2022-12-18T11:08:01.679Z,4.53
2022-12-18T11:10:32.782Z,3.50
2022-12-18T11:13:11.667Z,3.70
2022-12-18T11:15:38.340Z,3.60
2022-12-18T11:18:04.964Z,3.70
2022-12-18T11:20:36.294Z,3.43
2022-12-18T11:23:12.099Z,3.57
2022-12-18T11:25:39.216Z,3.17
2022-12-18T11:28:25.803Z,3.33
2022-12-18T11:31:24.593Z,3.20
2022-12-18T11:34:28.730Z,3.53
2022-12-18T11:36:56.411Z,3.27
2022-12-18T11:39:39.507Z,3.67
2022-12-18T11:42:19.520Z,3.23
2022-12-18T11:44:52.952Z,3.50
2022-12-18T11:47:45.070Z,3.47
2022-12-18T11:50:19.668Z,3.30
2022-12-18T11:52:47.721Z,3.60
2022-12-18T11:55:46.462Z,3.10
2022-12-18T11:58:35.046Z,3.40
2022-12-18T12:01:44.045Z,3.67
2022-12-18T12:04:34.504Z,3.50
2022-12-18T12:07:10.909Z,3.67
2022-12-18T12:09:52.660Z,3.30
2022-12-18T12:12:48.575Z,3.23
2022-12-18T12:15:51.011Z,4.30
2022-12-18T12:18:20.641Z,3.03
2022-12-18T12:20:56.172Z,3.07
2022-12-18T12:23:31.696Z,2.77
2022-12-18T12:26:09.901Z,2.73
2022-12-18T12:28:53.863Z,3.80
2022-12-18T12:31:53.360Z,3.53
2022-12-18T12:34:19.997Z,3.10
2022-12-18T12:37:12.457Z,2.80
2022-12-18T12:39:41.292Z,3.33
2022-12-18T12:42:33.854Z,3.10
2022-12-18T12:45:00.442Z,3.37
2022-12-18T12:47:33.857Z,3.73
2022-12-18T12:50:02.082Z,3.30
2022-12-18T12:52:31.987Z,3.07
2022-12-18T12:54:58.653Z,3.10
2022-12-18T12:57:46.917Z,3.20
2022-12-18T13:00:17.819Z,3.20
2022-12-18T13:03:00.696Z,3.53
2022-12-18T13:05:52.257Z,3.37
2022-12-18T13:08:33.188Z,2.80
2022-12-18T13:11:20.178Z,3.50
2022-12-18T13:13:54.474Z,3.67
2022-12-18T13:16:22.658Z,3.13
2022-12-18T13:18:58.704Z,2.83
2022-12-18T13:21:33.261Z,2.93
2022-12-18T13:24:24.565Z,3.57
2022-12-18T13:26:51.387Z,3.00
2022-12-18T13:29:43.537Z,3.40
2022-12-18T13:32:24.658Z,3.70
2022-12-18T13:35:38.226Z,3.93
2022-12-18T13:38:32.788Z,3.23
2022-12-18T13:41:08.316Z,3.53
2022-12-18T13:43:44.377Z,3.70
2022-12-18T13:46:46.047Z,3.97
2022-12-18T13:49:13.195Z,4.20
2022-12-18T13:51:49.110Z,4.10
2022-12-18T13:54:35.705Z,3.70
2022-12-18T13:57:02.729Z,4.20
2022-12-18T13:59:36.671Z,4.03
2022-12-18T14:02:15.240Z,4.07
2022-12-18T14:04:42.683Z,4.70
2022-12-18T14:07:13.909Z,3.90
2022-12-18T14:09:55.641Z,4.13
2022-12-18T14:12:50.223Z,4.23
2022-12-18T14:15:34.164Z,4.23
2022-12-18T14:18:10.142Z,4.27
2022-12-18T14:20:36.740Z,4.37
2022-12-18T14:23:03.493Z,4.43
2022-12-18T14:25:31.221Z,4.60
2022-12-18T14:28:09.058Z,4.50
2022-12-18T14:30:45.969Z,5.20
2022-12-18T14:33:13.577Z,4.27
2022-12-18T14:35:52.619Z,4.20
2022-12-18T14:38:23.935Z,5.27
2022-12-18T14:41:00.352Z,4.53
2022-12-18T14:43:28.065Z,5.17
2022-12-18T14:45:54.870Z,4.10
2022-12-18T14:48:25.186Z,4.47
2022-12-18T14:51:13.661Z,4.33
2022-12-18T14:53:42.688Z,4.07
2022-12-18T14:56:31.799Z,4.43
2022-12-18T14:59:06.072Z,4.90
2022-12-18T15:01:55.282Z,5.37
2022-12-18T15:04:33.127Z,5.00
2022-12-18T15:07:17.444Z,5.60
2022-12-18T15:10:04.318Z,5.47
2022-12-18T15:12:37.666Z,6.13
2022-12-18T15:15:05.762Z,5.90
2022-12-18T15:17:32.371Z,6.03
2022-12-18T15:20:04.083Z,5.07
2022-12-18T15:22:32.849Z,6.60
2022-12-18T15:24:59.518Z,6.67
2022-12-18T15:27:36.310Z,5.70
2022-12-18T15:30:08.899Z,7.87
2022-12-18T15:32:38.791Z,5.97
2022-12-18T15:35:18.784Z,6.47
2022-12-18T15:37:45.446Z,6.57
2022-12-18T15:40:17.357Z,7.63
2022-12-18T15:43:02.355Z,7.70
2022-12-18T15:45:28.971Z,7.70
2022-12-18T15:47:56.065Z,7.03
2022-12-18T15:50:22.738Z,6.67
2022-12-18T15:52:50.777Z,6.80
2022-12-18T15:55:44.841Z,7.37
2022-12-18T15:58:12.316Z,7.13
2022-12-18T16:00:40.010Z,7.03
2022-12-18T16:03:07.195Z,7.13
2022-12-18T16:05:34.082Z,8.03
2022-12-18T16:08:00.727Z,7.93
2022-12-18T16:10:27.401Z,8.10
2022-12-18T16:12:54.019Z,7.57
2022-12-18T16:15:24.597Z,6.57
2022-12-18T16:17:52.533Z,5.90
2022-12-18T16:20:21.637Z,5.77
2022-12-18T16:22:48.657Z,6.63
2022-12-18T16:25:23.827Z,7.70
2022-12-18T16:27:50.583Z,8.23
2022-12-18T16:30:20.127Z,6.57
2022-12-18T16:32:46.833Z,7.90
2022-12-18T16:35:14.112Z,6.47
2022-12-18T16:37:41.064Z,8.63
2022-12-18T16:40:09.801Z,7.77
2022-12-18T16:42:40.595Z,7.90
2022-12-18T16:45:08.220Z,7.37
2022-12-18T16:47:34.935Z,6.27
2022-12-18T16:50:01.541Z,7.83
2022-12-18T16:52:28.376Z,9.60
2022-12-18T16:54:55.001Z,8.33
2022-12-18T16:57:23.275Z,9.17
2022-12-18T16:59:52.189Z,9.53
2022-12-18T17:02:24.417Z,9.27
2022-12-18T17:04:53.665Z,9.20
2022-12-18T17:07:20.240Z,8.30
2022-12-18T17:09:46.856Z,8.30
2022-12-18T17:12:13.475Z,8.87
2022-12-18T17:14:40.149Z,8.63
2022-12-18T17:17:23.847Z,9.50
2022-12-18T17:19:51.257Z,8.73
2022-12-18T17:22:17.975Z,8.33
2022-12-18T17:24:44.568Z,8.73
2022-12-18T17:27:11.210Z,8.70
2022-12-18T17:29:41.297Z,8.33
2022-12-18T17:32:13.466Z,9.17
2022-12-18T17:34:40.615Z,9.33
2022-12-18T17:37:07.255Z,10.37
2022-12-18T17:39:33.856Z,9.43
2022-12-18T17:42:01.183Z,9.83
2022-12-18T17:44:27.794Z,10.17
2022-12-18T17:46:54.471Z,8.97
2022-12-18T17:49:21.538Z,10.97
2022-12-18T17:51:48.560Z,8.60
2022-12-18T17:54:15.192Z,11.63
2022-12-18T17:56:41.934Z,10.27
2022-12-18T17:59:08.760Z,11.13
2022-12-18T18:01:39.705Z,9.77
2022-12-18T18:04:10.646Z,10.47
2022-12-18T18:06:39.016Z,11.17
2022-12-18T18:09:06.629Z,11.30
2022-12-18T18:11:56.160Z,10.80
2022-12-18T18:14:22.963Z,10.17
2022-12-18T18:16:50.374Z,10.60
2022-12-18T18:19:18.777Z,10.73
2022-12-18T18:21:47.010Z,10.27
2022-12-18T18:24:15.269Z,10.30
2022-12-18T18:26:41.952Z,10.77
2022-12-18T18:29:08.737Z,10.37
2022-12-18T18:31:35.863Z,8.70
2022-12-18T18:34:07.390Z,8.97
2022-12-18T18:36:34.798Z,8.87
2022-12-18T18:39:02.108Z,9.77
2022-12-18T18:41:29.946Z,10.87
2022-12-18T18:43:57.154Z,10.87
2022-12-18T18:46:23.978Z,9.90
2022-12-18T18:48:50.617Z,10.33
2022-12-18T18:51:21.201Z,10.70
2022-12-18T18:53:49.196Z,9.37
2022-12-18T18:56:50.125Z,10.87
2022-12-18T18:59:03.713Z,9.90
2022-12-18T19:01:30.548Z,10.70
2022-12-18T19:03:57.223Z,11.00
2022-12-18T19:06:25.310Z,11.53
2022-12-18T19:08:53.159Z,11.73
2022-12-18T19:11:38.921Z,9.07
2022-12-18T19:14:06.614Z,10.30
2022-12-18T19:16:33.389Z,11.87
2022-12-18T19:19:02.340Z,11.00
2022-12-18T19:21:30.485Z,10.13
2022-12-18T19:24:00.049Z,10.70
2022-12-18T19:26:28.315Z,11.50
2022-12-18T19:29:00.176Z,10.17
2022-12-18T19:31:31.783Z,10.00
2022-12-18T19:34:01.722Z,10.60
2022-12-18T19:36:29.359Z,10.33
2022-12-18T19:38:57.458Z,9.00
2022-12-18T19:41:24.423Z,11.93
2022-12-18T19:43:52.245Z,10.27
2022-12-18T19:46:20.942Z,10.73
2022-12-18T19:48:47.616Z,10.13
2022-12-18T19:51:16.413Z,10.40
2022-12-18T19:53:43.077Z,11.00
2022-12-18T19:56:11.267Z,10.80
2022-12-18T19:58:38.013Z,11.23
2022-12-18T20:01:05.128Z,11.33
2022-12-18T20:03:34.176Z,10.37
2022-12-18T20:06:32.258Z,9.07
2022-12-18T20:09:01.283Z,8.73
2022-12-18T20:11:29.502Z,13.97
2022-12-18T20:13:56.566Z,10.90
2022-12-18T20:16:23.238Z,10.60
2022-12-18T20:18:49.910Z,12.60
2022-12-18T20:21:17.943Z,10.20
2022-12-18T20:23:45.117Z,12.07
2022-12-18T20:26:11.917Z,11.20
2022-12-18T20:28:39.290Z,12.17
2022-12-18T20:31:08.403Z,11.57
2022-12-18T20:33:40.376Z,10.93
2022-12-18T20:36:09.001Z,11.17
2022-12-18T20:38:38.649Z,11.37
2022-12-18T20:41:15.271Z,11.50
2022-12-18T20:43:42.269Z,10.47
2022-12-18T20:46:10.390Z,10.17
2022-12-18T20:48:37.123Z,10.13
2022-12-18T20:51:05.940Z,10.50
2022-12-18T20:53:36.121Z,10.23
2022-12-18T20:56:08.173Z,9.30
2022-12-18T20:58:35.575Z,11.93
2022-12-18T21:01:10.308Z,12.03
2022-12-18T21:03:41.040Z,11.00
2022-12-18T21:06:08.062Z,11.53
2022-12-18T21:08:34.749Z,11.50
2022-12-18T21:11:39.332Z,11.67
2022-12-18T21:14:06.993Z,9.73
2022-12-18T21:16:33.830Z,11.07
2022-12-18T21:19:00.596Z,11.10
2022-12-18T21:21:27.512Z,10.10
2022-12-18T21:23:54.360Z,11.23
2022-12-18T21:26:24.752Z,10.27
2022-12-18T21:28:55.631Z,10.43
2022-12-18T21:31:23.533Z,11.77
2022-12-18T21:33:50.479Z,13.10
2022-12-18T21:36:18.737Z,11.27
2022-12-18T21:38:45.791Z,12.00
2022-12-18T21:41:37.454Z,12.83
2022-12-18T21:44:08.673Z,11.33
2022-12-18T21:46:36.774Z,10.70
2022-12-18T21:49:04.257Z,10.20
2022-12-18T21:51:31.338Z,10.60
2022-12-18T21:53:58.015Z,9.63
2022-12-18T21:56:24.846Z,9.07
2022-12-18T21:58:56.769Z,9.23
2022-12-18T22:01:24.158Z,8.93
2022-12-18T22:03:58.016Z,8.60
2022-12-18T22:06:24.653Z,9.43
2022-12-18T22:08:51.239Z,9.90
2022-12-18T22:11:17.867Z,9.70
2022-12-18T22:13:45.714Z,10.37
2022-12-18T22:16:12.370Z,9.67
2022-12-18T22:18:39.053Z,10.33
2022-12-18T22:21:06.032Z,10.97
2022-12-18T22:23:32.797Z,10.87
2022-12-18T22:25:59.457Z,10.80
2022-12-18T22:28:44.441Z,13.70
2022-12-18T22:31:11.089Z,11.30
2022-12-18T22:33:37.749Z,11.00
2022-12-18T22:36:06.597Z,11.17
2022-12-18T22:38:33.515Z,9.60
2022-12-18T22:41:00.123Z,10.33
2022-12-18T22:43:26.771Z,8.57
2022-12-18T22:45:53.407Z,8.50
2022-12-18T22:48:20.203Z,8.33
2022-12-18T22:50:46.809Z,10.50
2022-12-18T22:53:13.509Z,8.70
2022-12-18T22:55:40.097Z,9.77
2022-12-18T22:58:06.728Z,7.67
2022-12-18T23:00:33.625Z,8.83
2022-12-18T23:03:01.082Z,8.77
2022-12-18T23:05:29.404Z,8.27
2022-12-18T23:07:56.015Z,7.37
2022-12-18T23:10:22.624Z,8.80
2022-12-18T23:12:49.227Z,9.07
2022-12-18T23:15:15.875Z,10.50
2022-12-18T23:17:44.811Z,10.47
2022-12-18T23:20:11.818Z,9.90
2022-12-18T23:22:38.428Z,8.33
2022-12-18T23:25:05.406Z,9.97
2022-12-18T23:27:31.996Z,9.87
2022-12-18T23:29:58.589Z,10.77
2022-12-18T23:32:25.440Z,9.13
2022-12-18T23:34:52.026Z,10.57
2022-12-18T23:37:49.835Z,8.77
2022-12-18T23:40:05.894Z,9.63
2022-12-18T23:42:32.496Z,10.10
2022-12-18T23:44:59.116Z,10.00
2022-12-18T23:47:26.966Z,10.53
2022-12-18T23:49:53.543Z,10.23
2022-12-18T23:52:20.713Z,10.03
2022-12-18T23:54:47.344Z,10.63
2022-12-18T23:57:13.957Z,9.97
2022-12-18T23:59:40.595Z,8.80
